createdAt,value
2019-05-02T00:02:41.123Z,65.65
2019-05-02T00:07:47.604Z,66.00
2019-05-02T00:12:54.086Z,66.11
2019-05-02T00:18:01.416Z,65.72
2019-05-02T00:23:07.978Z,65.85
2019-05-02T00:28:14.122Z,65.72
2019-05-02T00:33:20.224Z,66.09
2019-05-02T00:38:26.312Z,66.48
2019-05-02T00:43:34.427Z,66.84
2019-05-02T00:48:44.490Z,66.81
2019-05-02T00:53:52.097Z,66.99
2019-05-02T00:59:02.454Z,66.04
2019-05-02T01:04:09.059Z,65.43
2019-05-02T01:09:15.131Z,62.51
2019-05-02T01:14:21.102Z,62.15
2019-05-02T01:19:27.373Z,59.88
2019-05-02T01:24:34.287Z,60.04
2019-05-02T01:29:51.399Z,59.89
2019-05-02T01:35:01.979Z,59.24
2019-05-02T01:40:13.036Z,59.33
2019-05-02T01:45:16.146Z,59.18
2019-05-02T01:50:22.145Z,57.88
2019-05-02T01:55:28.628Z,57.59
2019-05-02T02:00:34.601Z,57.45
2019-05-02T02:05:40.870Z,56.96
2019-05-02T02:10:50.712Z,57.02
2019-05-02T02:15:55.110Z,57.88
2019-05-02T02:21:05.545Z,57.78
2019-05-02T02:26:13.926Z,57.78
2019-05-02T02:31:22.511Z,57.96
2019-05-02T02:36:34.528Z,57.76
2019-05-02T02:41:36.086Z,57.80
2019-05-02T02:46:46.788Z,58.20
2019-05-02T02:51:57.938Z,59.16
2019-05-02T02:57:01.069Z,58.64
2019-05-02T03:02:10.041Z,58.58
2019-05-02T03:07:24.164Z,59.00
2019-05-02T03:12:23.354Z,59.02
2019-05-02T03:17:29.267Z,59.22
2019-05-02T03:22:42.030Z,59.08
2019-05-02T03:27:42.289Z,59.14
2019-05-02T03:33:03.606Z,59.32
2019-05-02T03:37:56.814Z,59.24
2019-05-02T03:43:02.995Z,59.42
2019-05-02T03:48:09.067Z,59.99
2019-05-02T03:53:17.808Z,60.23
2019-05-02T03:58:24.502Z,60.86
2019-05-02T04:03:34.094Z,61.17
2019-05-02T04:08:39.297Z,61.40
2019-05-02T04:13:45.164Z,61.96
2019-05-02T04:18:55.692Z,62.37
2019-05-02T04:24:07.766Z,62.66
2019-05-02T04:29:05.881Z,62.51
2019-05-02T04:34:15.152Z,63.57
2019-05-02T04:39:21.670Z,63.73
2019-05-02T04:44:32.229Z,63.83
2019-05-02T04:49:36.132Z,63.98
2019-05-02T04:54:42.894Z,64.15
2019-05-02T05:00:02.582Z,64.10
2019-05-02T05:04:58.738Z,63.40
2019-05-02T05:10:08.424Z,63.45
2019-05-02T05:15:35.272Z,63.62
2019-05-02T05:20:22.964Z,63.88
2019-05-02T05:25:37.847Z,63.28
2019-05-02T05:30:45.474Z,63.96
2019-05-02T05:35:52.670Z,64.56
2019-05-02T05:41:03.110Z,63.80
2019-05-02T05:46:10.668Z,64.30
2019-05-02T05:51:17.038Z,64.94
2019-05-02T05:56:22.721Z,64.97
2019-05-02T06:01:34.451Z,63.53
2019-05-02T06:06:37.774Z,62.40
2019-05-02T06:11:44.411Z,63.24
2019-05-02T06:16:51.680Z,62.50
2019-05-02T06:21:58.277Z,62.51
2019-05-02T06:27:04.369Z,61.99
2019-05-02T06:32:14.164Z,61.47
2019-05-02T06:37:19.660Z,61.28
2019-05-02T06:42:27.695Z,62.07
2019-05-02T06:47:35.949Z,60.89
2019-05-02T06:52:40.926Z,60.63
2019-05-02T06:57:46.937Z,58.76
2019-05-02T07:02:53.100Z,58.29
2019-05-02T07:07:59.241Z,58.68
2019-05-02T07:13:10.915Z,58.03
2019-05-02T07:18:15.141Z,59.40
2019-05-02T07:23:20.346Z,59.13
2019-05-02T07:28:29.225Z,58.57
2019-05-02T07:33:37.512Z,59.89
2019-05-02T07:38:42.344Z,59.88
2019-05-02T07:43:52.117Z,57.85
2019-05-02T07:48:56.606Z,58.87
2019-05-02T07:54:03.690Z,58.16
2019-05-02T07:59:09.878Z,58.98
2019-05-02T08:04:16.110Z,58.47
2019-05-02T08:09:22.212Z,59.22
2019-05-02T08:14:29.154Z,59.68
2019-05-02T08:19:41.634Z,59.96
2019-05-02T08:24:45.223Z,58.93
2019-05-02T08:29:52.955Z,58.75
2019-05-02T08:34:59.019Z,59.53
2019-05-02T08:40:12.027Z,58.05
2019-05-02T08:45:18.489Z,59.94
2019-05-02T08:50:27.216Z,58.64
2019-05-02T08:55:32.209Z,58.61
2019-05-02T09:00:39.839Z,58.72
2019-05-02T09:05:47.168Z,58.21
2019-05-02T09:10:53.458Z,58.17
2019-05-02T09:16:02.601Z,58.38
2019-05-02T09:21:07.189Z,58.06
2019-05-02T09:26:13.156Z,58.67
2019-05-02T09:31:19.541Z,58.89
2019-05-02T09:36:25.842Z,58.88
2019-05-02T09:41:36.093Z,58.06
2019-05-02T09:46:39.705Z,57.52
2019-05-02T09:51:50.187Z,58.59
2019-05-02T09:56:52.948Z,58.73
2019-05-02T10:01:59.248Z,57.60
2019-05-02T10:07:05.747Z,58.94
2019-05-02T10:12:12.336Z,57.96
2019-05-02T10:17:19.228Z,57.93
2019-05-02T10:22:31.046Z,57.09
2019-05-02T10:27:33.500Z,56.75
2019-05-02T10:32:39.690Z,58.15
2019-05-02T10:37:45.801Z,57.43
2019-05-02T10:42:52.313Z,57.54
2019-05-02T10:47:58.524Z,58.02
2019-05-02T10:53:11.201Z,57.34
2019-05-02T10:58:13.489Z,57.23
2019-05-02T11:03:27.115Z,56.60
2019-05-02T11:08:36.709Z,56.76
2019-05-02T11:13:47.140Z,57.99
2019-05-02T11:18:58.629Z,57.16
2019-05-02T11:24:05.994Z,57.67
2019-05-02T11:29:12.398Z,56.83
2019-05-02T11:34:18.271Z,57.60
2019-05-02T11:39:31.892Z,57.16
2019-05-02T11:44:32.754Z,56.89
2019-05-02T11:49:39.151Z,57.16
2019-05-02T11:54:48.509Z,57.42
2019-05-02T11:59:53.147Z,57.39
2019-05-02T12:04:59.220Z,57.18
2019-05-02T12:10:08.428Z,56.94
2019-05-02T12:15:14.437Z,58.38
2019-05-02T12:20:22.664Z,58.58
2019-05-02T12:25:28.627Z,59.08
2019-05-02T12:30:37.653Z,58.61
2019-05-02T12:35:43.203Z,59.28
2019-05-02T12:40:51.893Z,59.39
2019-05-02T12:45:57.631Z,58.91
2019-05-02T12:51:03.748Z,59.51
2019-05-02T12:56:11.824Z,58.60
2019-05-02T13:01:17.512Z,59.58
2019-05-02T13:06:23.621Z,57.88
2019-05-02T13:11:36.782Z,56.80
2019-05-02T13:16:43.089Z,57.17
2019-05-02T13:21:59.619Z,56.49
2019-05-02T13:27:07.835Z,57.51
2019-05-02T13:32:18.653Z,57.00
2019-05-02T13:37:24.886Z,57.83
2019-05-02T13:42:30.968Z,57.94
2019-05-02T13:47:37.493Z,57.10
2019-05-02T13:52:44.950Z,54.92
2019-05-02T13:57:52.974Z,53.42
2019-05-02T14:02:58.937Z,54.10
2019-05-02T14:08:13.118Z,55.73
2019-05-02T14:13:19.117Z,55.38
2019-05-02T14:18:28.964Z,54.99
2019-05-02T14:23:32.973Z,55.25
2019-05-02T14:28:38.948Z,55.86
2019-05-02T14:33:47.565Z,56.53
2019-05-02T14:38:53.699Z,56.70
2019-05-02T14:43:59.648Z,56.45
2019-05-02T14:49:06.902Z,55.95
2019-05-02T14:54:13.030Z,56.96
2019-05-02T14:59:20.064Z,55.64
2019-05-02T15:04:26.358Z,55.80
2019-05-02T15:09:35.709Z,56.50
2019-05-02T15:14:40.177Z,55.91
2019-05-02T15:19:46.215Z,57.29
2019-05-02T15:24:53.256Z,57.29
2019-05-02T15:30:05.162Z,57.92
2019-05-02T15:35:12.791Z,58.74
2019-05-02T15:40:43.545Z,59.31
2019-05-02T15:45:28.256Z,61.13
2019-05-02T15:50:34.635Z,61.96
2019-05-02T15:55:43.624Z,61.75
2019-05-02T16:00:49.246Z,60.87
2019-05-02T16:05:55.473Z,60.70
2019-05-02T16:11:02.943Z,60.86
2019-05-02T16:16:09.618Z,60.42
2019-05-02T16:21:18.361Z,61.01
2019-05-02T16:26:23.610Z,60.37
2019-05-02T16:31:31.561Z,59.80
2019-05-02T16:36:37.854Z,60.55
2019-05-02T16:41:49.097Z,59.05
2019-05-02T16:46:54.338Z,59.89
2019-05-02T16:52:04.960Z,60.36
2019-05-02T16:57:08.235Z,60.52
2019-05-02T17:02:14.503Z,61.05
2019-05-02T17:07:22.421Z,60.41
2019-05-02T17:12:28.951Z,60.01
2019-05-02T17:17:35.008Z,60.42
2019-05-02T17:22:41.472Z,59.13
2019-05-02T17:27:53.495Z,59.45
2019-05-02T17:32:56.786Z,59.05
2019-05-02T17:38:03.100Z,59.15
2019-05-02T17:43:09.287Z,59.38
2019-05-02T17:48:17.663Z,59.52
2019-05-02T17:53:23.434Z,59.62
2019-05-02T17:58:31.609Z,59.92
2019-05-02T18:03:37.253Z,60.14
2019-05-02T18:08:46.369Z,59.56
2019-05-02T18:13:51.813Z,59.22
2019-05-02T18:18:58.204Z,59.40
2019-05-02T18:24:06.005Z,60.81
2019-05-02T18:29:13.207Z,61.54
2019-05-02T18:34:24.846Z,61.79
2019-05-02T18:39:27.821Z,61.31
2019-05-02T18:44:33.790Z,62.11
2019-05-02T18:49:41.791Z,62.80
2019-05-02T18:54:47.471Z,63.80
2019-05-02T18:59:56.503Z,63.22
2019-05-02T19:05:02.389Z,63.26
2019-05-02T19:10:09.692Z,64.15
2019-05-02T19:15:16.580Z,65.79
2019-05-02T19:20:29.726Z,65.98
2019-05-02T19:25:35.804Z,65.29
2019-05-02T19:30:43.157Z,67.46
2019-05-02T19:35:50.730Z,68.82
2019-05-02T19:40:58.216Z,70.01
2019-05-02T19:46:05.008Z,70.24
2019-05-02T19:51:18.498Z,69.35
2019-05-02T19:56:18.786Z,70.34
2019-05-02T20:01:26.505Z,71.02
2019-05-02T20:06:32.663Z,71.37
2019-05-02T20:11:38.868Z,70.87
2019-05-02T20:16:50.143Z,70.61
2019-05-02T20:22:02.791Z,69.75
2019-05-02T20:27:05.878Z,68.69
2019-05-02T20:32:12.662Z,69.78
2019-05-02T20:37:21.933Z,70.40
2019-05-02T20:42:27.326Z,72.00
2019-05-02T20:47:33.340Z,72.45
2019-05-02T20:52:39.243Z,73.11
2019-05-02T20:57:45.079Z,73.19
2019-05-02T21:02:51.884Z,73.31
2019-05-02T21:08:16.073Z,72.52
2019-05-02T21:13:22.348Z,72.55
2019-05-02T21:18:28.208Z,72.96
2019-05-02T21:23:43.720Z,73.71
2019-05-02T21:28:42.832Z,74.46
2019-05-02T21:33:51.809Z,71.59
2019-05-02T21:38:57.518Z,72.69
2019-05-02T21:44:03.385Z,74.42
2019-05-02T21:49:12.037Z,75.60
2019-05-02T21:54:25.677Z,76.27
2019-05-02T21:59:31.552Z,76.85
2019-05-02T22:04:37.617Z,76.19
2019-05-02T22:09:43.587Z,76.06
2019-05-02T22:14:49.466Z,75.91
2019-05-02T22:19:55.422Z,75.98
2019-05-02T22:25:02.274Z,76.15
2019-05-02T22:30:08.799Z,76.11
2019-05-02T22:35:15.285Z,75.67
2019-05-02T22:40:21.793Z,75.89
2019-05-02T22:45:28.864Z,75.87
2019-05-02T22:50:34.732Z,76.24
2019-05-02T22:55:42.479Z,75.84
2019-05-02T23:00:47.778Z,76.01
2019-05-02T23:05:53.568Z,76.38
2019-05-02T23:10:59.434Z,76.12
2019-05-02T23:16:05.514Z,76.62
2019-05-02T23:21:12.702Z,76.62
2019-05-02T23:26:35.582Z,76.66
2019-05-02T23:31:42.316Z,77.60
2019-05-02T23:36:48.539Z,77.50
2019-05-02T23:41:54.509Z,77.65
2019-05-02T23:47:02.224Z,78.06
2019-05-02T23:52:08.011Z,77.97
2019-05-02T23:57:13.962Z,78.35
